sensor_id;sensor_type;location;lat;lon;timestamp;temperature;humidity
11617;DHT22;5864;52.998;9.068;2022-07-29T00:01:21;15.40;99.90
11617;DHT22;5864;52.998;9.068;2022-07-29T00:03:49;15.40;99.90
11617;DHT22;5864;52.998;9.068;2022-07-29T00:06:16;15.50;99.90
11617;DHT22;5864;52.998;9.068;2022-07-29T00:08:46;15.40;99.90
11617;DHT22;5864;52.998;9.068;2022-07-29T00:11:13;15.30;99.90
11617;DHT22;5864;52.998;9.068;2022-07-29T00:13:40;15.30;99.90
11617;DHT22;5864;52.998;9.068;2022-07-29T00:16:08;15.30;99.90
11617;DHT22;5864;52.998;9.068;2022-07-29T00:18:35;15.30;99.90
11617;DHT22;5864;52.998;9.068;2022-07-29T00:21:03;15.40;99.90
11617;DHT22;5864;52.998;9.068;2022-07-29T00:23:30;15.30;99.90
11617;DHT22;5864;52.998;9.068;2022-07-29T00:25:59;15.30;99.90
11617;DHT22;5864;52.998;9.068;2022-07-29T00:28:27;15.30;99.90
11617;DHT22;5864;52.998;9.068;2022-07-29T00:30:54;15.30;99.90
11617;DHT22;5864;52.998;9.068;2022-07-29T00:33:22;15.20;99.90
11617;DHT22;5864;52.998;9.068;2022-07-29T00:35:49;15.20;99.90
11617;DHT22;5864;52.998;9.068;2022-07-29T00:38:18;15.20;99.90
11617;DHT22;5864;52.998;9.068;2022-07-29T00:40:46;15.10;99.90
11617;DHT22;5864;52.998;9.068;2022-07-29T00:43:17;15.20;99.90
11617;DHT22;5864;52.998;9.068;2022-07-29T00:45:44;15.20;99.90
11617;DHT22;5864;52.998;9.068;2022-07-29T00:48:12;15.20;99.90
11617;DHT22;5864;52.998;9.068;2022-07-29T00:50:40;15.10;99.90
11617;DHT22;5864;52.998;9.068;2022-07-29T00:53:07;15.10;99.90
11617;DHT22;5864;52.998;9.068;2022-07-29T00:55:35;15.10;99.90
11617;DHT22;5864;52.998;9.068;2022-07-29T00:58:03;15.10;99.90
11617;DHT22;5864;52.998;9.068;2022-07-29T01:00:33;14.90;99.90
11617;DHT22;5864;52.998;9.068;2022-07-29T01:03:00;14.90;99.90
11617;DHT22;5864;52.998;9.068;2022-07-29T01:05:28;15.00;99.90
11617;DHT22;5864;52.998;9.068;2022-07-29T01:07:57;14.90;99.90
11617;DHT22;5864;52.998;9.068;2022-07-29T01:10:26;14.90;99.90
11617;DHT22;5864;52.998;9.068;2022-07-29T01:12:55;15.00;99.90
11617;DHT22;5864;52.998;9.068;2022-07-29T01:15:24;15.00;99.90
11617;DHT22;5864;52.998;9.068;2022-07-29T01:17:58;15.00;99.90
11617;DHT22;5864;52.998;9.068;2022-07-29T01:20:35;14.90;99.90
11617;DHT22;5864;52.998;9.068;2022-07-29T01:23:43;14.90;99.90
11617;DHT22;5864;52.998;9.068;2022-07-29T01:26:28;14.80;99.90
11617;DHT22;5864;52.998;9.068;2022-07-29T01:29:06;14.80;99.90
11617;DHT22;5864;52.998;9.068;2022-07-29T01:31:45;14.90;99.90
11617;DHT22;5864;52.998;9.068;2022-07-29T01:34:20;14.80;99.90
11617;DHT22;5864;52.998;9.068;2022-07-29T01:36:54;14.70;99.90
11617;DHT22;5864;52.998;9.068;2022-07-29T01:39:27;14.70;99.90
11617;DHT22;5864;52.998;9.068;2022-07-29T01:41:59;14.70;99.90
11617;DHT22;5864;52.998;9.068;2022-07-29T01:44:35;14.60;99.90
11617;DHT22;5864;52.998;9.068;2022-07-29T01:47:12;14.60;99.90
11617;DHT22;5864;52.998;9.068;2022-07-29T01:49:46;14.60;99.90
11617;DHT22;5864;52.998;9.068;2022-07-29T01:52:20;14.60;99.90
11617;DHT22;5864;52.998;9.068;2022-07-29T01:54:52;14.70;99.90
11617;DHT22;5864;52.998;9.068;2022-07-29T01:57:26;14.60;99.90
11617;DHT22;5864;52.998;9.068;2022-07-29T01:59:57;14.70;99.90
11617;DHT22;5864;52.998;9.068;2022-07-29T02:02:26;14.70;99.90
11617;DHT22;5864;52.998;9.068;2022-07-29T02:04:56;14.60;99.90
11617;DHT22;5864;52.998;9.068;2022-07-29T02:07:25;14.70;99.90
11617;DHT22;5864;52.998;9.068;2022-07-29T02:09:55;14.70;99.90
11617;DHT22;5864;52.998;9.068;2022-07-29T02:12:24;14.60;99.90
11617;DHT22;5864;52.998;9.068;2022-07-29T02:14:53;14.70;99.90
11617;DHT22;5864;52.998;9.068;2022-07-29T02:17:26;14.70;99.90
11617;DHT22;5864;52.998;9.068;2022-07-29T02:19:56;14.70;99.90
11617;DHT22;5864;52.998;9.068;2022-07-29T02:22:28;14.70;99.90
11617;DHT22;5864;52.998;9.068;2022-07-29T02:24:57;14.80;99.90
11617;DHT22;5864;52.998;9.068;2022-07-29T02:27:27;14.90;99.90
11617;DHT22;5864;52.998;9.068;2022-07-29T02:29:55;14.80;99.90
11617;DHT22;5864;52.998;9.068;2022-07-29T02:32:26;14.70;99.90
11617;DHT22;5864;52.998;9.068;2022-07-29T02:34:55;14.80;99.90
11617;DHT22;5864;52.998;9.068;2022-07-29T02:37:24;14.80;99.90
11617;DHT22;5864;52.998;9.068;2022-07-29T02:39:53;14.80;99.90
11617;DHT22;5864;52.998;9.068;2022-07-29T02:42:22;14.80;99.90
11617;DHT22;5864;52.998;9.068;2022-07-29T02:44:51;14.80;99.90
11617;DHT22;5864;52.998;9.068;2022-07-29T02:47:21;14.80;99.90
11617;DHT22;5864;52.998;9.068;2022-07-29T02:49:57;14.80;99.90
11617;DHT22;5864;52.998;9.068;2022-07-29T02:52:31;14.80;99.90
11617;DHT22;5864;52.998;9.068;2022-07-29T02:55:02;14.80;99.90
11617;DHT22;5864;52.998;9.068;2022-07-29T02:57:34;14.90;99.90
11617;DHT22;5864;52.998;9.068;2022-07-29T03:00:06;14.90;99.90
11617;DHT22;5864;52.998;9.068;2022-07-29T03:02:37;15.00;99.90
11617;DHT22;5864;52.998;9.068;2022-07-29T03:05:09;15.10;99.90
11617;DHT22;5864;52.998;9.068;2022-07-29T03:07:39;15.10;99.90
11617;DHT22;5864;52.998;9.068;2022-07-29T03:10:08;15.00;99.90
11617;DHT22;5864;52.998;9.068;2022-07-29T03:12:36;14.90;99.90
11617;DHT22;5864;52.998;9.068;2022-07-29T03:15:05;14.90;99.90
11617;DHT22;5864;52.998;9.068;2022-07-29T03:17:33;15.00;99.90
11617;DHT22;5864;52.998;9.068;2022-07-29T03:20:02;15.00;99.90
11617;DHT22;5864;52.998;9.068;2022-07-29T03:22:31;15.10;99.90
11617;DHT22;5864;52.998;9.068;2022-07-29T03:25:07;15.10;99.90
11617;DHT22;5864;52.998;9.068;2022-07-29T03:27:35;15.10;99.90
11617;DHT22;5864;52.998;9.068;2022-07-29T03:30:03;15.20;99.90
11617;DHT22;5864;52.998;9.068;2022-07-29T03:32:31;15.10;99.90
11617;DHT22;5864;52.998;9.068;2022-07-29T03:34:58;15.10;99.90
11617;DHT22;5864;52.998;9.068;2022-07-29T03:37:26;15.20;99.90
11617;DHT22;5864;52.998;9.068;2022-07-29T03:39:57;15.00;99.90
11617;DHT22;5864;52.998;9.068;2022-07-29T03:42:27;15.00;99.90
11617;DHT22;5864;52.998;9.068;2022-07-29T03:44:56;15.10;99.90
11617;DHT22;5864;52.998;9.068;2022-07-29T03:47:26;15.10;99.90
11617;DHT22;5864;52.998;9.068;2022-07-29T03:50:00;15.20;99.90
11617;DHT22;5864;52.998;9.068;2022-07-29T03:52:29;15.20;99.90
11617;DHT22;5864;52.998;9.068;2022-07-29T03:54:58;15.20;99.90
11617;DHT22;5864;52.998;9.068;2022-07-29T03:57:27;15.10;99.90
11617;DHT22;5864;52.998;9.068;2022-07-29T03:59:55;15.00;99.90
11617;DHT22;5864;52.998;9.068;2022-07-29T04:02:23;14.90;99.90
11617;DHT22;5864;52.998;9.068;2022-07-29T04:04:52;14.80;99.90
11617;DHT22;5864;52.998;9.068;2022-07-29T04:07:19;14.90;99.90
11617;DHT22;5864;52.998;9.068;2022-07-29T04:09:47;14.90;99.90
11617;DHT22;5864;52.998;9.068;2022-07-29T04:12:16;15.00;99.90
11617;DHT22;5864;52.998;9.068;2022-07-29T04:14:43;14.70;99.90
11617;DHT22;5864;52.998;9.068;2022-07-29T04:17:11;14.70;99.90
11617;DHT22;5864;52.998;9.068;2022-07-29T04:19:38;14.60;99.90
11617;DHT22;5864;52.998;9.068;2022-07-29T04:22:05;14.60;99.90
11617;DHT22;5864;52.998;9.068;2022-07-29T04:24:33;14.60;99.90
11617;DHT22;5864;52.998;9.068;2022-07-29T04:27:01;14.50;99.90
11617;DHT22;5864;52.998;9.068;2022-07-29T04:29:30;14.50;99.90
11617;DHT22;5864;52.998;9.068;2022-07-29T04:31:58;14.50;99.90
11617;DHT22;5864;52.998;9.068;2022-07-29T04:34:25;14.50;99.90
11617;DHT22;5864;52.998;9.068;2022-07-29T04:36:53;14.50;99.90
11617;DHT22;5864;52.998;9.068;2022-07-29T04:39:20;14.60;99.90
11617;DHT22;5864;52.998;9.068;2022-07-29T04:41:48;14.60;99.90
11617;DHT22;5864;52.998;9.068;2022-07-29T04:44:16;14.60;99.90
11617;DHT22;5864;52.998;9.068;2022-07-29T04:46:45;14.60;99.90
11617;DHT22;5864;52.998;9.068;2022-07-29T04:49:12;14.50;99.90
11617;DHT22;5864;52.998;9.068;2022-07-29T04:51:40;14.60;99.90
11617;DHT22;5864;52.998;9.068;2022-07-29T04:54:07;14.60;99.90
11617;DHT22;5864;52.998;9.068;2022-07-29T04:56:35;14.50;99.90
11617;DHT22;5864;52.998;9.068;2022-07-29T04:59:02;14.60;99.90
11617;DHT22;5864;52.998;9.068;2022-07-29T05:01:30;14.70;99.90
11617;DHT22;5864;52.998;9.068;2022-07-29T05:03:58;14.70;99.90
11617;DHT22;5864;52.998;9.068;2022-07-29T05:06:26;14.70;99.90
11617;DHT22;5864;52.998;9.068;2022-07-29T05:08:53;14.60;99.90
11617;DHT22;5864;52.998;9.068;2022-07-29T05:11:21;14.80;99.90
11617;DHT22;5864;52.998;9.068;2022-07-29T05:13:48;14.80;99.90
11617;DHT22;5864;52.998;9.068;2022-07-29T05:16:16;14.90;99.90
11617;DHT22;5864;52.998;9.068;2022-07-29T05:18:43;15.00;99.90
11617;DHT22;5864;52.998;9.068;2022-07-29T05:21:12;15.00;99.90
11617;DHT22;5864;52.998;9.068;2022-07-29T05:23:40;15.20;99.90
11617;DHT22;5864;52.998;9.068;2022-07-29T05:26:07;15.30;99.90
11617;DHT22;5864;52.998;9.068;2022-07-29T05:28:35;15.40;99.90
11617;DHT22;5864;52.998;9.068;2022-07-29T05:31:02;15.40;99.90
11617;DHT22;5864;52.998;9.068;2022-07-29T05:33:30;15.50;99.90
11617;DHT22;5864;52.998;9.068;2022-07-29T05:35:57;15.50;99.90
11617;DHT22;5864;52.998;9.068;2022-07-29T05:38:26;15.50;99.90
11617;DHT22;5864;52.998;9.068;2022-07-29T05:40:56;15.50;99.90
11617;DHT22;5864;52.998;9.068;2022-07-29T05:43:24;15.60;99.90
11617;DHT22;5864;52.998;9.068;2022-07-29T05:45:51;15.60;99.90
11617;DHT22;5864;52.998;9.068;2022-07-29T05:48:19;15.60;99.90
11617;DHT22;5864;52.998;9.068;2022-07-29T05:50:47;15.70;99.90
11617;DHT22;5864;52.998;9.068;2022-07-29T05:53:14;15.60;99.90
11617;DHT22;5864;52.998;9.068;2022-07-29T05:55:43;15.80;99.90
11617;DHT22;5864;52.998;9.068;2022-07-29T05:58:11;15.80;99.90
11617;DHT22;5864;52.998;9.068;2022-07-29T06:00:38;15.90;99.90
11617;DHT22;5864;52.998;9.068;2022-07-29T06:03:06;15.80;99.90
11617;DHT22;5864;52.998;9.068;2022-07-29T06:05:33;15.90;99.90
11617;DHT22;5864;52.998;9.068;2022-07-29T06:08:01;15.90;99.90
11617;DHT22;5864;52.998;9.068;2022-07-29T06:10:28;16.00;99.90
11617;DHT22;5864;52.998;9.068;2022-07-29T06:12:58;16.00;99.90
11617;DHT22;5864;52.998;9.068;2022-07-29T06:15:26;16.10;99.90
11617;DHT22;5864;52.998;9.068;2022-07-29T06:17:54;16.00;99.90
11617;DHT22;5864;52.998;9.068;2022-07-29T06:20:21;16.10;99.90
11617;DHT22;5864;52.998;9.068;2022-07-29T06:22:49;16.10;99.90
11617;DHT22;5864;52.998;9.068;2022-07-29T06:25:16;16.20;99.90
11617;DHT22;5864;52.998;9.068;2022-07-29T06:27:44;16.20;99.90
11617;DHT22;5864;52.998;9.068;2022-07-29T06:30:14;16.30;99.90
11617;DHT22;5864;52.998;9.068;2022-07-29T06:32:42;16.20;99.90
11617;DHT22;5864;52.998;9.068;2022-07-29T06:35:10;16.30;99.90
11617;DHT22;5864;52.998;9.068;2022-07-29T06:37:37;16.40;99.90
11617;DHT22;5864;52.998;9.068;2022-07-29T06:40:05;16.50;99.90
11617;DHT22;5864;52.998;9.068;2022-07-29T06:42:50;16.70;99.90
11617;DHT22;5864;52.998;9.068;2022-07-29T06:45:19;16.70;99.90
11617;DHT22;5864;52.998;9.068;2022-07-29T06:47:47;16.90;99.90
11617;DHT22;5864;52.998;9.068;2022-07-29T06:50:16;17.20;99.90
11617;DHT22;5864;52.998;9.068;2022-07-29T06:52:43;17.50;99.90
11617;DHT22;5864;52.998;9.068;2022-07-29T06:55:11;17.80;99.90
11617;DHT22;5864;52.998;9.068;2022-07-29T06:57:39;17.80;99.90
11617;DHT22;5864;52.998;9.068;2022-07-29T07:00:07;17.90;99.90
11617;DHT22;5864;52.998;9.068;2022-07-29T07:02:36;17.80;99.90
11617;DHT22;5864;52.998;9.068;2022-07-29T07:05:04;17.90;99.90
11617;DHT22;5864;52.998;9.068;2022-07-29T07:07:32;18.00;99.90
11617;DHT22;5864;52.998;9.068;2022-07-29T07:10:00;18.20;99.90
11617;DHT22;5864;52.998;9.068;2022-07-29T07:12:27;18.30;99.90
11617;DHT22;5864;52.998;9.068;2022-07-29T07:14:54;18.60;99.90
11617;DHT22;5864;52.998;9.068;2022-07-29T07:17:22;18.90;99.90
11617;DHT22;5864;52.998;9.068;2022-07-29T07:19:52;19.10;99.90
11617;DHT22;5864;52.998;9.068;2022-07-29T07:22:19;19.30;99.90
11617;DHT22;5864;52.998;9.068;2022-07-29T07:24:47;19.60;99.90
11617;DHT22;5864;52.998;9.068;2022-07-29T07:27:14;19.70;99.90
11617;DHT22;5864;52.998;9.068;2022-07-29T07:29:42;19.70;99.90
11617;DHT22;5864;52.998;9.068;2022-07-29T07:32:09;19.90;99.90
11617;DHT22;5864;52.998;9.068;2022-07-29T07:34:39;20.20;99.90
11617;DHT22;5864;52.998;9.068;2022-07-29T07:37:07;20.50;99.90
11617;DHT22;5864;52.998;9.068;2022-07-29T07:39:35;20.50;99.90
11617;DHT22;5864;52.998;9.068;2022-07-29T07:42:03;20.50;99.90
11617;DHT22;5864;52.998;9.068;2022-07-29T07:44:30;20.60;99.90
11617;DHT22;5864;52.998;9.068;2022-07-29T07:46:57;20.60;99.90
11617;DHT22;5864;52.998;9.068;2022-07-29T07:49:25;20.60;99.90
11617;DHT22;5864;52.998;9.068;2022-07-29T07:51:52;20.80;99.90
11617;DHT22;5864;52.998;9.068;2022-07-29T07:54:21;20.90;99.70
11617;DHT22;5864;52.998;9.068;2022-07-29T07:56:49;20.90;99.90
11617;DHT22;5864;52.998;9.068;2022-07-29T07:59:17;20.90;99.80
11617;DHT22;5864;52.998;9.068;2022-07-29T08:01:45;20.90;99.80
11617;DHT22;5864;52.998;9.068;2022-07-29T08:04:12;20.90;99.60
11617;DHT22;5864;52.998;9.068;2022-07-29T08:06:39;21.00;99.60
11617;DHT22;5864;52.998;9.068;2022-07-29T08:09:07;21.00;99.70
11617;DHT22;5864;52.998;9.068;2022-07-29T08:11:36;21.50;99.90
11617;DHT22;5864;52.998;9.068;2022-07-29T08:14:03;22.40;98.50
11617;DHT22;5864;52.998;9.068;2022-07-29T08:16:31;22.90;98.30
11617;DHT22;5864;52.998;9.068;2022-07-29T08:18:58;23.60;96.30
11617;DHT22;5864;52.998;9.068;2022-07-29T08:21:26;24.20;96.00
11617;DHT22;5864;52.998;9.068;2022-07-29T08:23:53;24.40;94.60
11617;DHT22;5864;52.998;9.068;2022-07-29T08:26:43;24.70;94.00
11617;DHT22;5864;52.998;9.068;2022-07-29T08:29:11;25.10;93.40
11617;DHT22;5864;52.998;9.068;2022-07-29T08:31:39;25.30;92.20
11617;DHT22;5864;52.998;9.068;2022-07-29T08:34:07;25.80;92.00
11617;DHT22;5864;52.998;9.068;2022-07-29T08:36:35;25.90;91.10
11617;DHT22;5864;52.998;9.068;2022-07-29T08:39:03;25.70;90.10
11617;DHT22;5864;52.998;9.068;2022-07-29T08:41:31;26.20;90.20
11617;DHT22;5864;52.998;9.068;2022-07-29T08:44:00;26.80;89.40
11617;DHT22;5864;52.998;9.068;2022-07-29T08:46:27;27.10;88.30
11617;DHT22;5864;52.998;9.068;2022-07-29T08:51:23;26.80;84.90
11617;DHT22;5864;52.998;9.068;2022-07-29T08:56:20;27.00;85.40
11617;DHT22;5864;52.998;9.068;2022-07-29T09:01:21;26.70;84.00
11617;DHT22;5864;52.998;9.068;2022-07-29T09:03:50;26.50;85.40
11617;DHT22;5864;52.998;9.068;2022-07-29T09:08:52;27.30;81.70
11617;DHT22;5864;52.998;9.068;2022-07-29T09:11:20;27.40;82.90
11617;DHT22;5864;52.998;9.068;2022-07-29T09:13:47;27.60;82.00
11617;DHT22;5864;52.998;9.068;2022-07-29T09:16:17;27.70;80.50
11617;DHT22;5864;52.998;9.068;2022-07-29T09:24:04;27.60;75.60
11617;DHT22;5864;52.998;9.068;2022-07-29T09:36:39;27.70;75.90
11617;DHT22;5864;52.998;9.068;2022-07-29T09:39:07;28.30;75.80
11617;DHT22;5864;52.998;9.068;2022-07-29T09:44:21;28.60;71.70
11617;DHT22;5864;52.998;9.068;2022-07-29T09:49:31;28.40;72.00
11617;DHT22;5864;52.998;9.068;2022-07-29T09:52:02;27.60;73.80
11617;DHT22;5864;52.998;9.068;2022-07-29T09:57:03;27.90;73.40
11617;DHT22;5864;52.998;9.068;2022-07-29T10:04:38;28.00;76.00
11617;DHT22;5864;52.998;9.068;2022-07-29T10:07:06;28.50;75.30
11617;DHT22;5864;52.998;9.068;2022-07-29T10:14:31;28.10;74.30
11617;DHT22;5864;52.998;9.068;2022-07-29T10:17:01;28.20;75.50
11617;DHT22;5864;52.998;9.068;2022-07-29T10:21:57;27.90;75.00
11617;DHT22;5864;52.998;9.068;2022-07-29T10:24:26;27.80;73.40
11617;DHT22;5864;52.998;9.068;2022-07-29T10:31:58;28.20;70.70
11617;DHT22;5864;52.998;9.068;2022-07-29T10:34:36;27.80;72.80
11617;DHT22;5864;52.998;9.068;2022-07-29T10:37:18;27.70;73.40
11617;DHT22;5864;52.998;9.068;2022-07-29T10:39:56;27.40;69.30
11617;DHT22;5864;52.998;9.068;2022-07-29T10:42:29;27.10;70.30
11617;DHT22;5864;52.998;9.068;2022-07-29T10:44:57;27.00;70.00
11617;DHT22;5864;52.998;9.068;2022-07-29T10:47:26;26.80;68.50
11617;DHT22;5864;52.998;9.068;2022-07-29T10:49:59;26.40;70.70
11617;DHT22;5864;52.998;9.068;2022-07-29T10:55:34;26.30;70.00
11617;DHT22;5864;52.998;9.068;2022-07-29T10:58:13;26.10;72.10
11617;DHT22;5864;52.998;9.068;2022-07-29T11:00:40;25.90;71.80
11617;DHT22;5864;52.998;9.068;2022-07-29T11:03:08;26.10;72.30
11617;DHT22;5864;52.998;9.068;2022-07-29T11:05:54;26.30;71.90
11617;DHT22;5864;52.998;9.068;2022-07-29T11:08:23;26.30;71.70
11617;DHT22;5864;52.998;9.068;2022-07-29T11:10:53;26.50;71.70
11617;DHT22;5864;52.998;9.068;2022-07-29T11:13:50;26.80;70.50
11617;DHT22;5864;52.998;9.068;2022-07-29T11:16:21;27.30;71.90
11617;DHT22;5864;52.998;9.068;2022-07-29T11:19:20;27.40;70.70
11617;DHT22;5864;52.998;9.068;2022-07-29T11:21:49;27.50;70.70
11617;DHT22;5864;52.998;9.068;2022-07-29T11:24:20;27.60;70.20
11617;DHT22;5864;52.998;9.068;2022-07-29T11:27:10;27.70;70.20
11617;DHT22;5864;52.998;9.068;2022-07-29T11:29:40;27.90;69.20
11617;DHT22;5864;52.998;9.068;2022-07-29T11:32:09;28.10;67.60
11617;DHT22;5864;52.998;9.068;2022-07-29T11:34:37;28.30;67.10
11617;DHT22;5864;52.998;9.068;2022-07-29T11:37:21;28.90;67.60
11617;DHT22;5864;52.998;9.068;2022-07-29T11:40:14;28.60;65.10
11617;DHT22;5864;52.998;9.068;2022-07-29T11:42:45;29.00;65.90
11617;DHT22;5864;52.998;9.068;2022-07-29T11:45:18;29.00;62.80
11617;DHT22;5864;52.998;9.068;2022-07-29T11:47:50;28.20;60.90
11617;DHT22;5864;52.998;9.068;2022-07-29T11:50:29;28.20;62.70
11617;DHT22;5864;52.998;9.068;2022-07-29T11:52:59;28.20;62.30
11617;DHT22;5864;52.998;9.068;2022-07-29T11:55:27;28.50;61.10
11617;DHT22;5864;52.998;9.068;2022-07-29T11:57:57;28.60;59.80
11617;DHT22;5864;52.998;9.068;2022-07-29T12:00:30;28.40;58.10
11617;DHT22;5864;52.998;9.068;2022-07-29T12:02:59;28.00;58.90
11617;DHT22;5864;52.998;9.068;2022-07-29T12:05:35;27.80;59.30
11617;DHT22;5864;52.998;9.068;2022-07-29T12:08:12;27.90;58.90
11617;DHT22;5864;52.998;9.068;2022-07-29T12:10:41;27.60;58.50
11617;DHT22;5864;52.998;9.068;2022-07-29T12:13:09;27.50;59.20
11617;DHT22;5864;52.998;9.068;2022-07-29T12:15:37;27.40;59.20
11617;DHT22;5864;52.998;9.068;2022-07-29T12:18:13;27.60;60.40
11617;DHT22;5864;52.998;9.068;2022-07-29T12:20:41;27.40;61.10
11617;DHT22;5864;52.998;9.068;2022-07-29T12:23:10;27.50;60.40
11617;DHT22;5864;52.998;9.068;2022-07-29T12:25:40;27.80;60.10
11617;DHT22;5864;52.998;9.068;2022-07-29T12:28:09;27.90;59.40
11617;DHT22;5864;52.998;9.068;2022-07-29T12:30:43;28.20;59.00
11617;DHT22;5864;52.998;9.068;2022-07-29T12:33:13;28.10;58.30
11617;DHT22;5864;52.998;9.068;2022-07-29T12:35:42;28.40;59.40
11617;DHT22;5864;52.998;9.068;2022-07-29T12:38:13;28.10;58.50
11617;DHT22;5864;52.998;9.068;2022-07-29T12:40:41;28.40;57.90
11617;DHT22;5864;52.998;9.068;2022-07-29T12:43:11;28.00;57.50
11617;DHT22;5864;52.998;9.068;2022-07-29T12:45:41;28.10;59.20
11617;DHT22;5864;52.998;9.068;2022-07-29T12:48:09;28.30;58.90
11617;DHT22;5864;52.998;9.068;2022-07-29T12:50:52;28.30;60.60
11617;DHT22;5864;52.998;9.068;2022-07-29T12:53:21;28.80;58.60
11617;DHT22;5864;52.998;9.068;2022-07-29T12:55:51;29.20;59.80
11617;DHT22;5864;52.998;9.068;2022-07-29T12:58:29;29.50;58.60
11617;DHT22;5864;52.998;9.068;2022-07-29T13:01:06;29.70;59.60
11617;DHT22;5864;52.998;9.068;2022-07-29T13:03:47;29.90;59.50
11617;DHT22;5864;52.998;9.068;2022-07-29T13:06:31;29.40;64.10
11617;DHT22;5864;52.998;9.068;2022-07-29T13:09:03;29.10;64.60
11617;DHT22;5864;52.998;9.068;2022-07-29T13:11:31;28.70;66.60
11617;DHT22;5864;52.998;9.068;2022-07-29T13:13:59;28.70;65.70
11617;DHT22;5864;52.998;9.068;2022-07-29T13:16:26;28.20;67.30
11617;DHT22;5864;52.998;9.068;2022-07-29T13:19:05;27.60;68.40
11617;DHT22;5864;52.998;9.068;2022-07-29T13:21:33;27.40;71.50
11617;DHT22;5864;52.998;9.068;2022-07-29T13:24:02;27.10;71.90
11617;DHT22;5864;52.998;9.068;2022-07-29T13:26:30;27.30;72.10
11617;DHT22;5864;52.998;9.068;2022-07-29T13:28:57;27.40;71.10
11617;DHT22;5864;52.998;9.068;2022-07-29T13:31:25;27.50;70.80
11617;DHT22;5864;52.998;9.068;2022-07-29T13:33:52;27.60;70.80
11617;DHT22;5864;52.998;9.068;2022-07-29T13:36:20;27.50;70.80
11617;DHT22;5864;52.998;9.068;2022-07-29T13:38:47;27.10;71.30
11617;DHT22;5864;52.998;9.068;2022-07-29T13:41:16;27.10;72.10
11617;DHT22;5864;52.998;9.068;2022-07-29T13:43:44;27.20;72.30
11617;DHT22;5864;52.998;9.068;2022-07-29T13:46:11;27.10;73.00
11617;DHT22;5864;52.998;9.068;2022-07-29T13:48:39;27.20;72.90
11617;DHT22;5864;52.998;9.068;2022-07-29T13:51:07;27.30;71.70
11617;DHT22;5864;52.998;9.068;2022-07-29T13:53:34;27.20;71.60
11617;DHT22;5864;52.998;9.068;2022-07-29T13:56:02;27.20;71.80
11617;DHT22;5864;52.998;9.068;2022-07-29T13:58:33;27.10;71.50
11617;DHT22;5864;52.998;9.068;2022-07-29T14:01:00;27.30;72.70
11617;DHT22;5864;52.998;9.068;2022-07-29T14:03:29;27.30;71.40
11617;DHT22;5864;52.998;9.068;2022-07-29T14:05:57;27.30;71.90
11617;DHT22;5864;52.998;9.068;2022-07-29T14:08:26;27.50;71.00
11617;DHT22;5864;52.998;9.068;2022-07-29T14:10:53;28.00;71.50
11617;DHT22;5864;52.998;9.068;2022-07-29T14:13:21;28.20;70.40
11617;DHT22;5864;52.998;9.068;2022-07-29T14:15:50;28.50;68.10
11617;DHT22;5864;52.998;9.068;2022-07-29T14:18:17;28.50;66.30
11617;DHT22;5864;52.998;9.068;2022-07-29T14:20:45;28.80;66.90
11617;DHT22;5864;52.998;9.068;2022-07-29T14:23:12;28.40;66.80
11617;DHT22;5864;52.998;9.068;2022-07-29T14:25:39;28.10;66.80
11617;DHT22;5864;52.998;9.068;2022-07-29T14:28:07;27.80;67.20
11617;DHT22;5864;52.998;9.068;2022-07-29T14:30:34;27.80;67.20
11617;DHT22;5864;52.998;9.068;2022-07-29T14:33:04;27.60;67.80
11617;DHT22;5864;52.998;9.068;2022-07-29T14:35:31;27.40;68.10
11617;DHT22;5864;52.998;9.068;2022-07-29T14:37:59;27.60;67.60
11617;DHT22;5864;52.998;9.068;2022-07-29T14:40:26;27.80;67.60
11617;DHT22;5864;52.998;9.068;2022-07-29T14:42:54;27.70;67.10
11617;DHT22;5864;52.998;9.068;2022-07-29T14:45:21;27.80;67.30
11617;DHT22;5864;52.998;9.068;2022-07-29T14:47:49;27.40;66.90
11617;DHT22;5864;52.998;9.068;2022-07-29T14:50:18;27.20;67.00
11617;DHT22;5864;52.998;9.068;2022-07-29T14:52:45;27.30;68.00
11617;DHT22;5864;52.998;9.068;2022-07-29T14:55:13;27.50;67.90
11617;DHT22;5864;52.998;9.068;2022-07-29T14:57:41;27.30;66.80
11617;DHT22;5864;52.998;9.068;2022-07-29T15:00:09;27.10;66.40
11617;DHT22;5864;52.998;9.068;2022-07-29T15:02:37;27.00;67.50
11617;DHT22;5864;52.998;9.068;2022-07-29T15:05:05;27.00;67.10
11617;DHT22;5864;52.998;9.068;2022-07-29T15:07:34;27.00;68.20
11617;DHT22;5864;52.998;9.068;2022-07-29T15:10:02;27.10;68.30
11617;DHT22;5864;52.998;9.068;2022-07-29T15:12:30;27.00;67.40
11617;DHT22;5864;52.998;9.068;2022-07-29T15:14:57;27.00;66.90
11617;DHT22;5864;52.998;9.068;2022-07-29T15:17:25;26.90;67.10
11617;DHT22;5864;52.998;9.068;2022-07-29T15:19:53;26.90;67.80
11617;DHT22;5864;52.998;9.068;2022-07-29T15:22:21;27.00;67.80
11617;DHT22;5864;52.998;9.068;2022-07-29T15:24:50;27.00;66.90
11617;DHT22;5864;52.998;9.068;2022-07-29T15:27:18;27.00;66.40
11617;DHT22;5864;52.998;9.068;2022-07-29T15:29:45;26.80;66.80
11617;DHT22;5864;52.998;9.068;2022-07-29T15:32:13;27.00;66.30
11617;DHT22;5864;52.998;9.068;2022-07-29T15:34:40;26.70;66.20
11617;DHT22;5864;52.998;9.068;2022-07-29T15:37:08;26.70;67.20
11617;DHT22;5864;52.998;9.068;2022-07-29T15:39:36;26.50;66.20
11617;DHT22;5864;52.998;9.068;2022-07-29T15:42:06;26.40;66.60
11617;DHT22;5864;52.998;9.068;2022-07-29T15:44:33;26.50;67.10
11617;DHT22;5864;52.998;9.068;2022-07-29T15:47:01;26.40;67.70
11617;DHT22;5864;52.998;9.068;2022-07-29T15:49:33;26.30;67.80
11617;DHT22;5864;52.998;9.068;2022-07-29T15:52:02;26.30;67.90
11617;DHT22;5864;52.998;9.068;2022-07-29T15:54:32;26.50;68.60
11617;DHT22;5864;52.998;9.068;2022-07-29T15:57:00;26.70;67.50
11617;DHT22;5864;52.998;9.068;2022-07-29T15:59:30;26.60;67.40
11617;DHT22;5864;52.998;9.068;2022-07-29T16:01:57;26.70;67.60
11617;DHT22;5864;52.998;9.068;2022-07-29T16:04:25;26.70;67.60
11617;DHT22;5864;52.998;9.068;2022-07-29T16:06:53;26.50;67.90
11617;DHT22;5864;52.998;9.068;2022-07-29T16:09:21;26.40;68.10
11617;DHT22;5864;52.998;9.068;2022-07-29T16:11:49;26.20;68.20
11617;DHT22;5864;52.998;9.068;2022-07-29T16:14:19;26.30;68.50
11617;DHT22;5864;52.998;9.068;2022-07-29T16:16:48;26.40;68.80
11617;DHT22;5864;52.998;9.068;2022-07-29T16:19:15;26.40;67.40
11617;DHT22;5864;52.998;9.068;2022-07-29T16:21:43;26.40;68.70
11617;DHT22;5864;52.998;9.068;2022-07-29T16:24:10;26.40;68.70
11617;DHT22;5864;52.998;9.068;2022-07-29T16:26:38;26.30;68.70
11617;DHT22;5864;52.998;9.068;2022-07-29T16:29:05;26.20;68.90
11617;DHT22;5864;52.998;9.068;2022-07-29T16:31:33;26.10;68.60
11617;DHT22;5864;52.998;9.068;2022-07-29T16:34:02;26.10;69.20
11617;DHT22;5864;52.998;9.068;2022-07-29T16:36:29;26.20;69.70
11617;DHT22;5864;52.998;9.068;2022-07-29T16:38:57;26.20;68.90
11617;DHT22;5864;52.998;9.068;2022-07-29T16:41:24;26.00;69.10
11617;DHT22;5864;52.998;9.068;2022-07-29T16:43:52;26.10;69.60
11617;DHT22;5864;52.998;9.068;2022-07-29T16:46:20;26.10;69.30
11617;DHT22;5864;52.998;9.068;2022-07-29T16:48:47;26.10;68.80
11617;DHT22;5864;52.998;9.068;2022-07-29T16:51:16;26.10;69.20
11617;DHT22;5864;52.998;9.068;2022-07-29T16:53:44;26.10;69.30